sensor_id;sensor_type;location;lat;lon;timestamp;pressure;altitude;pressure_sealevel;temperature;humidity
14612;BME280;7392;52.078;11.650;2023-04-01T00:00:14;98955.94;;;8.37;100.00
14612;BME280;7392;52.078;11.650;2023-04-01T00:02:42;98949.75;;;8.37;100.00
14612;BME280;7392;52.078;11.650;2023-04-01T00:05:12;98945.38;;;8.36;100.00
14612;BME280;7392;52.078;11.650;2023-04-01T00:07:40;98948.03;;;8.36;100.00
14612;BME280;7392;52.078;11.650;2023-04-01T00:10:09;98946.28;;;8.35;100.00
14612;BME280;7392;52.078;11.650;2023-04-01T00:12:38;98954.22;;;8.35;100.00
14612;BME280;7392;52.078;11.650;2023-04-01T00:15:08;98946.28;;;8.35;100.00
14612;BME280;7392;52.078;11.650;2023-04-01T00:17:36;98950.69;;;8.34;100.00
14612;BME280;7392;52.078;11.650;2023-04-01T00:20:06;98946.31;;;8.33;100.00
14612;BME280;7392;52.078;11.650;2023-04-01T00:22:35;98951.59;;;8.33;100.00
14612;BME280;7392;52.078;11.650;2023-04-01T00:25:04;98947.19;;;8.34;100.00
14612;BME280;7392;52.078;11.650;2023-04-01T00:27:32;98945.44;;;8.33;100.00
14612;BME280;7392;52.078;11.650;2023-04-01T00:30:00;98946.34;;;8.32;100.00
14612;BME280;7392;52.078;11.650;2023-04-01T00:32:27;98948.09;;;8.33;100.00
14612;BME280;7392;52.078;11.650;2023-04-01T00:34:57;98948.09;;;8.33;100.00
14612;BME280;7392;52.078;11.650;2023-04-01T00:37:26;98941.91;;;8.34;100.00
14612;BME280;7392;52.078;11.650;2023-04-01T00:39:55;98945.41;;;8.34;100.00
14612;BME280;7392;52.078;11.650;2023-04-01T00:42:23;98944.53;;;8.35;100.00
14612;BME280;7392;52.078;11.650;2023-04-01T00:44:53;98944.53;;;8.35;100.00
14612;BME280;7392;52.078;11.650;2023-04-01T00:47:21;98942.72;;;8.36;100.00
14612;BME280;7392;52.078;11.650;2023-04-01T00:49:52;98943.59;;;8.36;100.00
14612;BME280;7392;52.078;11.650;2023-04-01T00:52:24;98941.81;;;8.37;100.00
14612;BME280;7392;52.078;11.650;2023-04-01T00:54:57;98948.00;;;8.37;100.00
14612;BME280;7392;52.078;11.650;2023-04-01T00:57:31;98949.72;;;8.38;100.00
14612;BME280;7392;52.078;11.650;2023-04-01T01:00:00;98950.63;;;8.39;100.00
14612;BME280;7392;52.078;11.650;2023-04-01T01:02:27;98951.47;;;8.39;100.00
14612;BME280;7392;52.078;11.650;2023-04-01T01:04:55;98955.91;;;8.39;100.00
14612;BME280;7392;52.078;11.650;2023-04-01T01:07:26;98952.34;;;8.40;100.00
14612;BME280;7392;52.078;11.650;2023-04-01T01:10:06;98956.75;;;8.39;100.00
14612;BME280;7392;52.078;11.650;2023-04-01T01:12:40;98949.69;;;8.40;100.00
14612;BME280;7392;52.078;11.650;2023-04-01T01:15:15;98954.13;;;8.39;100.00
14612;BME280;7392;52.078;11.650;2023-04-01T01:17:53;98956.75;;;8.39;100.00
14612;BME280;7392;52.078;11.650;2023-04-01T01:23:42;98946.25;;;8.36;100.00
14612;BME280;7392;52.078;11.650;2023-04-01T01:26:40;98947.16;;;8.35;100.00
14612;BME280;7392;52.078;11.650;2023-04-01T01:29:41;98950.66;;;8.36;100.00
14612;BME280;7392;52.078;11.650;2023-04-01T01:32:24;98948.88;;;8.36;100.00
14612;BME280;7392;52.078;11.650;2023-04-01T01:35:11;98952.47;;;8.35;100.00
14612;BME280;7392;52.078;11.650;2023-04-01T01:37:42;98945.41;;;8.34;100.00
14612;BME280;7392;52.078;11.650;2023-04-01T01:40:13;98950.69;;;8.34;100.00
14612;BME280;7392;52.078;11.650;2023-04-01T01:42:46;98945.41;;;8.34;100.00
14612;BME280;7392;52.078;11.650;2023-04-01T01:45:19;98955.09;;;8.35;100.00
14612;BME280;7392;52.078;11.650;2023-04-01T01:47:48;98950.69;;;8.34;100.00
14612;BME280;7392;52.078;11.650;2023-04-01T01:50:21;98948.94;;;8.33;100.00
14612;BME280;7392;52.078;11.650;2023-04-01T01:52:49;98949.88;;;8.32;100.00
14612;BME280;7392;52.078;11.650;2023-04-01T01:55:28;98961.31;;;8.33;100.00
14612;BME280;7392;52.078;11.650;2023-04-01T01:57:59;98960.41;;;8.34;100.00
14612;BME280;7392;52.078;11.650;2023-04-01T02:00:28;98958.66;;;8.33;100.00
14612;BME280;7392;52.078;11.650;2023-04-01T02:02:58;98948.09;;;8.33;100.00
14612;BME280;7392;52.078;11.650;2023-04-01T02:05:29;98956.03;;;8.33;100.00
14612;BME280;7392;52.078;11.650;2023-04-01T02:08:07;98959.56;;;8.32;100.00
14612;BME280;7392;52.078;11.650;2023-04-01T02:10:43;98953.38;;;8.33;100.00
14612;BME280;7392;52.078;11.650;2023-04-01T02:13:17;98962.19;;;8.32;100.00
14612;BME280;7392;52.078;11.650;2023-04-01T02:15:48;98960.44;;;8.32;100.00
14612;BME280;7392;52.078;11.650;2023-04-01T02:18:19;98955.19;;;8.31;100.00
14612;BME280;7392;52.078;11.650;2023-04-01T02:20:49;98953.41;;;8.31;100.00
14612;BME280;7392;52.078;11.650;2023-04-01T02:23:17;98954.34;;;8.30;100.00
14612;BME280;7392;52.078;11.650;2023-04-01T02:25:46;98948.19;;;8.28;100.00
14612;BME280;7392;52.078;11.650;2023-04-01T02:28:17;98955.22;;;8.29;100.00
14612;BME280;7392;52.078;11.650;2023-04-01T02:30:49;98957.91;;;8.28;100.00
14612;BME280;7392;52.078;11.650;2023-04-01T02:33:19;98952.59;;;8.28;100.00
14612;BME280;7392;52.078;11.650;2023-04-01T02:35:48;98955.25;;;8.28;100.00
14612;BME280;7392;52.078;11.650;2023-04-01T02:38:16;98954.41;;;8.26;100.00
14612;BME280;7392;52.078;11.650;2023-04-01T02:40:46;98955.31;;;8.24;100.00
14612;BME280;7392;52.078;11.650;2023-04-01T02:43:15;98949.19;;;8.22;100.00
14612;BME280;7392;52.078;11.650;2023-04-01T02:45:43;98953.63;;;8.22;100.00
14612;BME280;7392;52.078;11.650;2023-04-01T02:48:11;98958.94;;;8.20;100.00
14612;BME280;7392;52.078;11.650;2023-04-01T02:50:40;98955.38;;;8.21;100.00
14612;BME280;7392;52.078;11.650;2023-04-01T02:53:09;98956.28;;;8.20;100.00
14612;BME280;7392;52.078;11.650;2023-04-01T02:55:37;98961.56;;;8.20;100.00
14612;BME280;7392;52.078;11.650;2023-04-01T02:58:05;98958.94;;;8.20;100.00
14612;BME280;7392;52.078;11.650;2023-04-01T03:00:33;98959.81;;;8.19;100.00
14612;BME280;7392;52.078;11.650;2023-04-01T03:03:01;98961.59;;;8.19;100.00
14612;BME280;7392;52.078;11.650;2023-04-01T03:05:29;98966.91;;;8.19;100.00
14612;BME280;7392;52.078;11.650;2023-04-01T03:07:57;98961.63;;;8.17;100.00
14612;BME280;7392;52.078;11.650;2023-04-01T03:10:26;98959.00;;;8.17;100.00
14612;BME280;7392;52.078;11.650;2023-04-01T03:12:54;98968.69;;;8.18;100.00
14612;BME280;7392;52.078;11.650;2023-04-01T03:15:22;98968.69;;;8.18;100.00
14612;BME280;7392;52.078;11.650;2023-04-01T03:17:49;98970.44;;;8.18;100.00
14612;BME280;7392;52.078;11.650;2023-04-01T03:20:17;98974.00;;;8.17;100.00
14612;BME280;7392;52.078;11.650;2023-04-01T03:22:45;98974.88;;;8.16;100.00
14612;BME280;7392;52.078;11.650;2023-04-01T03:25:13;98965.22;;;8.15;100.00
14612;BME280;7392;52.078;11.650;2023-04-01T03:27:43;98967.91;;;8.13;100.00
14612;BME280;7392;52.078;11.650;2023-04-01T03:30:11;98979.38;;;8.12;100.00
14612;BME280;7392;52.078;11.650;2023-04-01T03:32:47;98974.06;;;8.12;100.00
14612;BME280;7392;52.078;11.650;2023-04-01T03:35:15;98981.16;;;8.12;100.00
14612;BME280;7392;52.078;11.650;2023-04-01T03:37:44;98976.75;;;8.11;100.00
14612;BME280;7392;52.078;11.650;2023-04-01T03:40:12;98980.31;;;8.10;100.00
14612;BME280;7392;52.078;11.650;2023-04-01T03:42:40;98977.66;;;8.10;100.00
14612;BME280;7392;52.078;11.650;2023-04-01T03:45:10;98977.69;;;8.08;100.00
14612;BME280;7392;52.078;11.650;2023-04-01T03:47:38;98977.69;;;8.08;100.00
14612;BME280;7392;52.078;11.650;2023-04-01T03:50:07;98982.09;;;8.08;100.00
14612;BME280;7392;52.078;11.650;2023-04-01T03:52:35;98982.13;;;8.06;100.00
14612;BME280;7392;52.078;11.650;2023-04-01T03:55:03;98985.66;;;8.07;100.00
14612;BME280;7392;52.078;11.650;2023-04-01T03:57:33;98985.66;;;8.07;100.00
14612;BME280;7392;52.078;11.650;2023-04-01T04:00:13;98984.81;;;8.04;100.00
14612;BME280;7392;52.078;11.650;2023-04-01T04:02:44;98984.81;;;8.04;100.00
14612;BME280;7392;52.078;11.650;2023-04-01T04:05:17;98990.13;;;8.03;100.00
14612;BME280;7392;52.078;11.650;2023-04-01T04:07:45;98981.31;;;8.02;100.00
14612;BME280;7392;52.078;11.650;2023-04-01T04:10:13;98987.53;;;8.01;100.00
14612;BME280;7392;52.078;11.650;2023-04-01T04:12:41;98985.75;;;8.00;100.00
14612;BME280;7392;52.078;11.650;2023-04-01T04:15:09;98989.31;;;7.99;100.00
14612;BME280;7392;52.078;11.650;2023-04-01T04:17:39;98994.63;;;7.99;100.00
14612;BME280;7392;52.078;11.650;2023-04-01T04:20:08;98992.00;;;7.98;100.00
14612;BME280;7392;52.078;11.650;2023-04-01T04:22:36;99000.78;;;7.98;100.00
14612;BME280;7392;52.078;11.650;2023-04-01T04:25:07;99001.69;;;7.97;100.00
14612;BME280;7392;52.078;11.650;2023-04-01T04:27:35;98999.03;;;7.97;100.00
14612;BME280;7392;52.078;11.650;2023-04-01T04:30:08;99004.31;;;7.97;100.00
14612;BME280;7392;52.078;11.650;2023-04-01T04:32:36;98997.31;;;7.96;100.00
14612;BME280;7392;52.078;11.650;2023-04-01T04:35:06;99011.41;;;7.95;100.00
14612;BME280;7392;52.078;11.650;2023-04-01T04:37:34;99007.91;;;7.95;100.00
14612;BME280;7392;52.078;11.650;2023-04-01T04:40:02;99002.66;;;7.93;100.00
14612;BME280;7392;52.078;11.650;2023-04-01T04:42:31;99005.28;;;7.93;100.00
14612;BME280;7392;52.078;11.650;2023-04-01T04:45:08;99008.81;;;7.92;100.00
14612;BME280;7392;52.078;11.650;2023-04-01T04:47:40;99019.41;;;7.92;100.00
14612;BME280;7392;52.078;11.650;2023-04-01T04:50:09;99015.91;;;7.92;100.00
14612;BME280;7392;52.078;11.650;2023-04-01T04:52:39;99015.91;;;7.90;100.00
14612;BME280;7392;52.078;11.650;2023-04-01T04:55:07;99019.47;;;7.89;100.00
14612;BME280;7392;52.078;11.650;2023-04-01T04:57:36;99023.00;;;7.90;100.00
14612;BME280;7392;52.078;11.650;2023-04-01T05:00:05;99022.13;;;7.89;100.00
14612;BME280;7392;52.078;11.650;2023-04-01T05:02:51;99026.53;;;7.89;100.00
14612;BME280;7392;52.078;11.650;2023-04-01T05:05:20;99026.53;;;7.89;100.00
14612;BME280;7392;52.078;11.650;2023-04-01T05:07:48;99024.78;;;7.88;100.00
14612;BME280;7392;52.078;11.650;2023-04-01T05:10:15;99029.16;;;7.89;100.00
14612;BME280;7392;52.078;11.650;2023-04-01T05:12:43;99023.91;;;7.87;100.00
14612;BME280;7392;52.078;11.650;2023-04-01T05:15:16;99027.47;;;7.86;100.00
14612;BME280;7392;52.078;11.650;2023-04-01T05:17:44;99025.69;;;7.86;100.00
14612;BME280;7392;52.078;11.650;2023-04-01T05:20:12;99028.31;;;7.86;100.00
14612;BME280;7392;52.078;11.650;2023-04-01T05:22:41;99030.94;;;7.88;100.00
14612;BME280;7392;52.078;11.650;2023-04-01T05:25:09;99038.88;;;7.88;100.00
14612;BME280;7392;52.078;11.650;2023-04-01T05:27:37;99036.22;;;7.88;100.00
14612;BME280;7392;52.078;11.650;2023-04-01T05:30:06;99036.22;;;7.90;100.00
14612;BME280;7392;52.078;11.650;2023-04-01T05:32:42;99036.19;;;7.91;100.00
14612;BME280;7392;52.078;11.650;2023-04-01T05:35:11;99040.53;;;7.92;100.00
14612;BME280;7392;52.078;11.650;2023-04-01T05:37:38;99049.38;;;7.93;100.00
14612;BME280;7392;52.078;11.650;2023-04-01T05:40:09;99048.44;;;7.95;100.00
14612;BME280;7392;52.078;11.650;2023-04-01T05:42:37;99043.13;;;7.95;100.00
14612;BME280;7392;52.078;11.650;2023-04-01T05:47:42;99043.03;;;8.01;100.00
14612;BME280;7392;52.078;11.650;2023-04-01T05:50:11;99055.34;;;8.02;100.00
14612;BME280;7392;52.078;11.650;2023-04-01T05:52:39;99053.56;;;8.04;100.00
14612;BME280;7392;52.078;11.650;2023-04-01T05:55:08;99047.31;;;8.07;100.00
14612;BME280;7392;52.078;11.650;2023-04-01T05:57:36;99048.13;;;8.11;100.00
14612;BME280;7392;52.078;11.650;2023-04-01T06:00:05;99048.06;;;8.15;100.00
14612;BME280;7392;52.078;11.650;2023-04-01T06:02:37;99044.47;;;8.18;100.00
14612;BME280;7392;52.078;11.650;2023-04-01T06:05:15;99043.53;;;8.22;100.00
14612;BME280;7392;52.078;11.650;2023-04-01T06:07:44;99045.16;;;8.28;100.00
14612;BME280;7392;52.078;11.650;2023-04-01T06:10:16;99054.78;;;8.32;100.00
14612;BME280;7392;52.078;11.650;2023-04-01T06:12:50;99055.56;;;8.37;100.00
14612;BME280;7392;52.078;11.650;2023-04-01T06:15:27;99060.78;;;8.43;100.00
14612;BME280;7392;52.078;11.650;2023-04-01T06:18:08;99057.13;;;8.49;100.00
14612;BME280;7392;52.078;11.650;2023-04-01T06:20:48;99064.91;;;8.56;100.00
14612;BME280;7392;52.078;11.650;2023-04-01T06:23:32;99062.16;;;8.63;100.00
14612;BME280;7392;52.078;11.650;2023-04-01T06:26:14;99058.47;;;8.70;100.00
14612;BME280;7392;52.078;11.650;2023-04-01T06:28:58;99059.28;;;8.73;100.00
14612;BME280;7392;52.078;11.650;2023-04-01T06:31:47;99067.06;;;8.79;100.00
14612;BME280;7392;52.078;11.650;2023-04-01T06:34:30;99068.78;;;8.82;100.00
14612;BME280;7392;52.078;11.650;2023-04-01T06:37:24;99071.34;;;8.87;100.00
14612;BME280;7392;52.078;11.650;2023-04-01T06:40:19;99071.22;;;8.91;100.00
14612;BME280;7392;52.078;11.650;2023-04-01T06:43:04;99079.03;;;8.97;100.00
14612;BME280;7392;52.078;11.650;2023-04-01T06:45:59;99073.69;;;9.01;100.00
14612;BME280;7392;52.078;11.650;2023-04-01T06:49:03;99080.63;;;9.06;100.00
14612;BME280;7392;52.078;11.650;2023-04-01T06:51:47;99079.59;;;9.12;100.00
14612;BME280;7392;52.078;11.650;2023-04-01T06:54:43;99094.50;;;9.17;100.00
14612;BME280;7392;52.078;11.650;2023-04-01T06:57:35;99085.56;;;9.22;100.00
14612;BME280;7392;52.078;11.650;2023-04-01T07:00:13;99089.94;;;9.24;100.00
14612;BME280;7392;52.078;11.650;2023-04-01T07:02:47;99081.91;;;9.27;100.00
14612;BME280;7392;52.078;11.650;2023-04-01T07:05:22;99081.00;;;9.28;100.00
14612;BME280;7392;52.078;11.650;2023-04-01T07:07:53;99086.19;;;9.33;100.00
14612;BME280;7392;52.078;11.650;2023-04-01T07:10:33;99085.22;;;9.37;100.00
14612;BME280;7392;52.078;11.650;2023-04-01T07:13:25;99085.06;;;9.43;100.00
14612;BME280;7392;52.078;11.650;2023-04-01T07:16:04;99093.75;;;9.50;100.00
14612;BME280;7392;52.078;11.650;2023-04-01T07:18:41;99091.84;;;9.57;100.00
14612;BME280;7392;52.078;11.650;2023-04-01T07:21:22;99093.53;;;9.59;100.00
14612;BME280;7392;52.078;11.650;2023-04-01T07:23:56;99096.97;;;9.63;100.00
14612;BME280;7392;52.078;11.650;2023-04-01T07:26:36;99093.34;;;9.67;100.00
14612;BME280;7392;52.078;11.650;2023-04-01T07:29:14;99101.19;;;9.70;100.00
14612;BME280;7392;52.078;11.650;2023-04-01T07:32:12;99102.00;;;9.73;100.00
14612;BME280;7392;52.078;11.650;2023-04-01T07:34:51;99102.81;;;9.77;100.00
14612;BME280;7392;52.078;11.650;2023-04-01T07:37:28;99105.34;;;9.82;100.00
14612;BME280;7392;52.078;11.650;2023-04-01T07:40:10;99114.06;;;9.85;100.00
14612;BME280;7392;52.078;11.650;2023-04-01T07:42:56;99113.94;;;9.91;100.00
14612;BME280;7392;52.078;11.650;2023-04-01T07:45:30;99118.16;;;9.99;100.00
14612;BME280;7392;52.078;11.650;2023-04-01T07:48:18;99119.75;;;10.06;100.00
14612;BME280;7392;52.078;11.650;2023-04-01T07:50:55;99117.06;;;10.07;100.00
14612;BME280;7392;52.078;11.650;2023-04-01T07:53:33;99124.03;;;10.11;100.00
14612;BME280;7392;52.078;11.650;2023-04-01T07:56:06;99122.16;;;10.17;100.00
14612;BME280;7392;52.078;11.650;2023-04-01T07:58:51;99122.91;;;10.22;100.00
14612;BME280;7392;52.078;11.650;2023-04-01T08:01:55;99129.78;;;10.29;100.00
14612;BME280;7392;52.078;11.650;2023-04-01T08:04:36;99129.66;;;10.35;100.00
14612;BME280;7392;52.078;11.650;2023-04-01T08:07:12;99130.28;;;10.43;100.00
14612;BME280;7392;52.078;11.650;2023-04-01T08:10:04;99132.75;;;10.51;100.00
14612;BME280;7392;52.078;11.650;2023-04-01T08:13:02;99144.00;;;10.61;100.00
14612;BME280;7392;52.078;11.650;2023-04-01T08:16:18;99142.13;;;10.64;100.00
14612;BME280;7392;52.078;11.650;2023-04-01T08:18:57;99142.09;;;10.66;100.00
14612;BME280;7392;52.078;11.650;2023-04-01T08:21:31;99141.94;;;10.71;100.00
14612;BME280;7392;52.078;11.650;2023-04-01T08:24:06;99140.81;;;10.79;100.00
14612;BME280;7392;52.078;11.650;2023-04-01T08:26:41;99143.16;;;10.90;100.00
14612;BME280;7392;52.078;11.650;2023-04-01T08:29:15;99147.31;;;11.00;100.00
14612;BME280;7392;52.078;11.650;2023-04-01T08:31:51;99141.66;;;11.11;100.00
14612;BME280;7392;52.078;11.650;2023-04-01T08:34:25;99148.31;;;11.26;100.00
14612;BME280;7392;52.078;11.650;2023-04-01T08:36:59;99147.16;;;11.35;100.00
14612;BME280;7392;52.078;11.650;2023-04-01T08:39:33;99147.13;;;11.36;100.00
14612;BME280;7392;52.078;11.650;2023-04-01T08:42:15;99143.47;;;11.39;100.00
14612;BME280;7392;52.078;11.650;2023-04-01T08:45:15;99153.25;;;11.38;100.00
14612;BME280;7392;52.078;11.650;2023-04-01T08:48:16;99153.22;;;11.40;100.00
14612;BME280;7392;52.078;11.650;2023-04-01T08:51:01;99157.41;;;11.47;100.00
14612;BME280;7392;52.078;11.650;2023-04-01T08:54:02;99153.81;;;11.50;100.00
14612;BME280;7392;52.078;11.650;2023-04-01T08:56:36;99157.38;;;11.49;100.00
14612;BME280;7392;52.078;11.650;2023-04-01T08:59:26;99158.28;;;11.48;100.00
14612;BME280;7392;52.078;11.650;2023-04-01T09:02:24;99161.09;;;11.43;100.00
14612;BME280;7392;52.078;11.650;2023-04-01T09:05:21;99151.41;;;11.40;100.00
14612;BME280;7392;52.078;11.650;2023-04-01T09:08:02;99161.09;;;11.43;100.00
14612;BME280;7392;52.078;11.650;2023-04-01T09:10:43;99159.31;;;11.44;100.00
14612;BME280;7392;52.078;11.650;2023-04-01T09:20:04;99152.19;;;11.44;100.00
14612;BME280;7392;52.078;11.650;2023-04-01T09:22:57;99164.56;;;11.45;100.00
14612;BME280;7392;52.078;11.650;2023-04-01T09:25:51;99160.06;;;11.47;100.00
14612;BME280;7392;52.078;11.650;2023-04-01T09:28:28;99159.97;;;11.50;100.00
14612;BME280;7392;52.078;11.650;2023-04-01T09:31:25;99162.50;;;11.55;100.00
14612;BME280;7392;52.078;11.650;2023-04-01T09:34:52;99168.56;;;11.60;100.00
14612;BME280;7392;52.078;11.650;2023-04-01T09:37:34;99165.84;;;11.62;100.00
14612;BME280;7392;52.078;11.650;2023-04-01T09:40:17;99170.13;;;11.66;100.00
14612;BME280;7392;52.078;11.650;2023-04-01T09:43:16;99175.28;;;11.72;100.00
14612;BME280;7392;52.078;11.650;2023-04-01T09:46:04;99175.91;;;11.78;100.00
14612;BME280;7392;52.078;11.650;2023-04-01T09:51:35;99176.97;;;12.03;100.00
14612;BME280;7392;52.078;11.650;2023-04-01T09:54:17;99171.25;;;12.15;100.00
14612;BME280;7392;52.078;11.650;2023-04-01T09:57:11;99177.06;;;12.26;100.00
14612;BME280;7392;52.078;11.650;2023-04-01T10:00:14;99180.59;;;12.27;99.34
14612;BME280;7392;52.078;11.650;2023-04-01T10:03:19;99183.31;;;12.25;97.15
14612;BME280;7392;52.078;11.650;2023-04-01T10:18:51;99193.34;;;12.44;95.69
14612;BME280;7392;52.078;11.650;2023-04-01T10:27:49;99192.63;;;12.64;93.38
14612;BME280;7392;52.078;11.650;2023-04-01T10:34:12;99192.88;;;12.83;92.38
14612;BME280;7392;52.078;11.650;2023-04-01T10:36:53;99189.13;;;12.88;91.18
14612;BME280;7392;52.078;11.650;2023-04-01T10:49:39;99205.59;;;13.23;89.29
14612;BME280;7392;52.078;11.650;2023-04-01T10:52:23;99194.81;;;13.26;87.55
14612;BME280;7392;52.078;11.650;2023-04-01T10:55:36;99198.09;;;13.35;87.47
14612;BME280;7392;52.078;11.650;2023-04-01T10:58:41;99197.78;;;13.42;87.60
14612;BME280;7392;52.078;11.650;2023-04-01T11:02:04;99192.28;;;13.47;85.88
14612;BME280;7392;52.078;11.650;2023-04-01T11:05:25;99195.69;;;13.51;85.26
14612;BME280;7392;52.078;11.650;2023-04-01T11:11:20;99201.28;;;13.44;82.85
14612;BME280;7392;52.078;11.650;2023-04-01T11:14:26;99199.44;;;13.46;83.75
14612;BME280;7392;52.078;11.650;2023-04-01T11:17:15;99198.56;;;13.46;82.90
14612;BME280;7392;52.078;11.650;2023-04-01T11:23:06;99199.44;;;13.46;83.52
14612;BME280;7392;52.078;11.650;2023-04-01T11:25:55;99214.25;;;13.54;84.07
14612;BME280;7392;52.078;11.650;2023-04-01T11:29:03;99201.84;;;13.53;83.16
14612;BME280;7392;52.078;11.650;2023-04-01T11:31:50;99210.75;;;13.53;83.41
14612;BME280;7392;52.078;11.650;2023-04-01T11:34:54;99208.97;;;13.52;83.77
14612;BME280;7392;52.078;11.650;2023-04-01T11:37:34;99219.00;;;13.45;85.86
14612;BME280;7392;52.078;11.650;2023-04-01T11:40:35;99216.88;;;13.32;87.21
14612;BME280;7392;52.078;11.650;2023-04-01T11:43:38;99227.75;;;13.25;88.52
14612;BME280;7392;52.078;11.650;2023-04-01T11:46:33;99228.03;;;13.18;88.56
14612;BME280;7392;52.078;11.650;2023-04-01T11:49:20;99229.28;;;13.07;87.61
14612;BME280;7392;52.078;11.650;2023-04-01T11:55:24;99236.41;;;12.82;87.86
14612;BME280;7392;52.078;11.650;2023-04-01T11:58:18;99234.66;;;12.81;88.87
14612;BME280;7392;52.078;11.650;2023-04-01T12:00:59;99233.03;;;12.77;87.55
14612;BME280;7392;52.078;11.650;2023-04-01T12:04:11;99235.84;;;12.72;87.60
14612;BME280;7392;52.078;11.650;2023-04-01T12:06:46;99231.28;;;12.76;88.13
14612;BME280;7392;52.078;11.650;2023-04-01T12:09:21;99244.59;;;12.76;86.63
14612;BME280;7392;52.078;11.650;2023-04-01T12:12:03;99247.28;;;12.76;85.39
14612;BME280;7392;52.078;11.650;2023-04-01T12:14:45;99245.56;;;12.75;84.61
14612;BME280;7392;52.078;11.650;2023-04-01T12:17:27;99244.59;;;12.76;84.30
14612;BME280;7392;52.078;11.650;2023-04-01T12:20:01;99243.91;;;12.70;82.39
14612;BME280;7392;52.078;11.650;2023-04-01T12:22:43;99250.16;;;12.69;82.17
14612;BME280;7392;52.078;11.650;2023-04-01T12:25:26;99251.69;;;12.77;83.24
14612;BME280;7392;52.078;11.650;2023-04-01T12:28:10;99251.34;;;12.86;82.96
14612;BME280;7392;52.078;11.650;2023-04-01T12:30:53;99257.34;;;12.93;81.79
14612;BME280;7392;52.078;11.650;2023-04-01T12:33:41;99247.38;;;12.98;81.41
14612;BME280;7392;52.078;11.650;2023-04-01T12:36:19;99254.19;;;13.06;81.54
14612;BME280;7392;52.078;11.650;2023-04-01T12:39:05;99260.00;;;13.18;81.88
14612;BME280;7392;52.078;11.650;2023-04-01T12:41:44;99254.41;;;13.25;81.79
14612;BME280;7392;52.078;11.650;2023-04-01T12:44:25;99253.28;;;13.33;81.85
14612;BME280;7392;52.078;11.650;2023-04-01T12:47:11;99254.94;;;13.35;81.08
14612;BME280;7392;52.078;11.650;2023-04-01T12:49:57;99260.81;;;13.45;81.66
14612;BME280;7392;52.078;11.650;2023-04-01T12:52:39;99263.13;;;13.54;82.63
14612;BME280;7392;52.078;11.650;2023-04-01T12:55:35;99259.25;;;13.63;83.42
14612;BME280;7392;52.078;11.650;2023-04-01T12:58:19;99260.88;;;13.67;83.30
14612;BME280;7392;52.078;11.650;2023-04-01T13:01:02;99268.72;;;13.72;83.45
14612;BME280;7392;52.078;11.650;2023-04-01T13:03:43;99271.19;;;13.76;83.53
14612;BME280;7392;52.078;11.650;2023-04-01T13:06:37;99271.06;;;13.79;83.16
14612;BME280;7392;52.078;11.650;2023-04-01T13:09:21;99269.22;;;13.81;82.85
14612;BME280;7392;52.078;11.650;2023-04-01T13:12:14;99272.56;;;13.87;82.82
14612;BME280;7392;52.078;11.650;2023-04-01T13:15:01;99272.34;;;13.93;83.04
14612;BME280;7392;52.078;11.650;2023-04-01T13:17:39;99280.13;;;13.99;83.31
14612;BME280;7392;52.078;11.650;2023-04-01T13:20:18;99279.09;;;14.01;83.23
14612;BME280;7392;52.078;11.650;2023-04-01T13:22:57;99283.47;;;14.04;83.09
14612;BME280;7392;52.078;11.650;2023-04-01T13:25:36;99293.25;;;14.03;82.50
14612;BME280;7392;52.078;11.650;2023-04-01T13:28:11;99287.06;;;14.03;82.36
14612;BME280;7392;52.078;11.650;2023-04-01T13:30:44;99298.53;;;14.05;82.80
14612;BME280;7392;52.078;11.650;2023-04-01T13:33:17;99292.22;;;14.08;83.45
14612;BME280;7392;52.078;11.650;2023-04-01T13:35:58;99295.69;;;14.10;83.61
14612;BME280;7392;52.078;11.650;2023-04-01T13:38:54;99295.66;;;14.11;83.34
14612;BME280;7392;52.078;11.650;2023-04-01T13:41:34;99296.56;;;14.10;82.58
14612;BME280;7392;52.078;11.650;2023-04-01T13:44:10;99300.28;;;14.06;81.82
14612;BME280;7392;52.078;11.650;2023-04-01T13:46:58;99302.16;;;14.04;81.82
14612;BME280;7392;52.078;11.650;2023-04-01T13:49:41;99307.59;;;14.01;81.53
14612;BME280;7392;52.078;11.650;2023-04-01T13:52:25;99312.16;;;13.99;81.95
14612;BME280;7392;52.078;11.650;2023-04-01T13:55:07;99315.84;;;13.95;81.54
14612;BME280;7392;52.078;11.650;2023-04-01T13:57:52;99317.44;;;13.77;83.09
14612;BME280;7392;52.078;11.650;2023-04-01T14:00:33;99324.31;;;13.59;84.87
14612;BME280;7392;52.078;11.650;2023-04-01T14:06:16;99329.81;;;13.29;85.56
14612;BME280;7392;52.078;11.650;2023-04-01T14:08:59;99326.69;;;13.16;85.82
14612;BME280;7392;52.078;11.650;2023-04-01T14:11:36;99328.81;;;13.06;86.75
14612;BME280;7392;52.078;11.650;2023-04-01T14:14:16;99329.03;;;13.00;87.92
14612;BME280;7392;52.078;11.650;2023-04-01T14:17:06;99334.66;;;12.91;88.25
14612;BME280;7392;52.078;11.650;2023-04-01T14:19:52;99351.72;;;12.85;89.60
14612;BME280;7392;52.078;11.650;2023-04-01T14:22:36;99354.44;;;12.84;90.95
14612;BME280;7392;52.078;11.650;2023-04-01T14:25:29;99367.91;;;12.79;92.60
14612;BME280;7392;52.078;11.650;2023-04-01T14:28:12;99368.13;;;12.73;94.81
14612;BME280;7392;52.078;11.650;2023-04-01T14:30:53;99364.78;;;12.66;96.73
14612;BME280;7392;52.078;11.650;2023-04-01T14:33:34;99368.66;;;12.56;98.83
14612;BME280;7392;52.078;11.650;2023-04-01T14:36:28;99376.03;;;12.48;100.00
14612;BME280;7392;52.078;11.650;2023-04-01T14:39:22;99379.00;;;12.39;100.00
14612;BME280;7392;52.078;11.650;2023-04-01T14:42:03;99386.38;;;12.29;100.00
14612;BME280;7392;52.078;11.650;2023-04-01T14:45:02;99385.94;;;12.14;100.00
14612;BME280;7392;52.078;11.650;2023-04-01T14:47:50;99388.16;;;11.98;100.00
14612;BME280;7392;52.078;11.650;2023-04-01T14:50:21;99392.91;;;11.87;100.00
14612;BME280;7392;52.078;11.650;2023-04-01T14:52:57;99401.19;;;11.76;100.00
14612;BME280;7392;52.078;11.650;2023-04-01T14:55:32;99410.31;;;11.66;100.00
14612;BME280;7392;52.078;11.650;2023-04-01T14:58:11;99404.53;;;11.52;100.00